sensor_id;sensor_type;location;lat;lon;timestamp;pressure;altitude;pressure_sealevel;temperature;humidity
44103;BME280;29769;42.178;24.742;2023-04-01T00:00:11;98825.91;;;8.09;100.00
44103;BME280;29769;42.178;24.742;2023-04-01T00:02:56;98817.97;;;7.68;100.00
44103;BME280;29769;42.178;24.742;2023-04-01T00:05:42;98777.94;;;7.61;100.00
44103;BME280;29769;42.178;24.742;2023-04-01T00:08:27;98812.19;;;7.96;100.00
44103;BME280;29769;42.178;24.742;2023-04-01T00:11:13;98813.03;;;7.97;100.00
44103;BME280;29769;42.178;24.742;2023-04-01T00:13:58;98812.97;;;8.00;100.00
44103;BME280;29769;42.178;24.742;2023-04-01T00:16:43;98812.16;;;7.98;100.00
44103;BME280;29769;42.178;24.742;2023-04-01T00:19:28;98817.94;;;8.15;100.00
44103;BME280;29769;42.178;24.742;2023-04-01T00:22:12;98823.88;;;8.23;100.00
44103;BME280;29769;42.178;24.742;2023-04-01T00:24:57;98824.72;;;8.25;100.00
44103;BME280;29769;42.178;24.742;2023-04-01T00:27:42;98830.50;;;7.96;100.00
44103;BME280;29769;42.178;24.742;2023-04-01T00:30:27;98835.47;;;7.64;100.00
44103;BME280;29769;42.178;24.742;2023-04-01T00:33:12;98830.66;;;7.40;100.00
44103;BME280;29769;42.178;24.742;2023-04-01T00:36:15;98828.00;;;7.41;100.00
44103;BME280;29769;42.178;24.742;2023-04-01T00:39:00;98823.47;;;7.51;100.00
44103;BME280;29769;42.178;24.742;2023-04-01T00:41:45;98839.81;;;7.64;100.00
44103;BME280;29769;42.178;24.742;2023-04-01T00:44:33;98832.59;;;7.79;100.00
44103;BME280;29769;42.178;24.742;2023-04-01T00:47:19;98805.69;;;7.71;100.00
44103;BME280;29769;42.178;24.742;2023-04-01T00:50:04;98833.63;;;7.69;100.00
44103;BME280;29769;42.178;24.742;2023-04-01T00:52:50;98829.50;;;7.54;100.00
44103;BME280;29769;42.178;24.742;2023-04-01T00:55:39;98819.63;;;7.72;100.00
44103;BME280;29769;42.178;24.742;2023-04-01T00:58:29;98814.09;;;7.88;100.00
44103;BME280;29769;42.178;24.742;2023-04-01T01:01:15;98811.38;;;7.94;100.00
44103;BME280;29769;42.178;24.742;2023-04-01T01:04:00;98813.03;;;7.98;100.00
44103;BME280;29769;42.178;24.742;2023-04-01T01:06:59;98804.03;;;8.12;100.00
44103;BME280;29769;42.178;24.742;2023-04-01T01:10:28;98807.81;;;7.95;100.00
44103;BME280;29769;42.178;24.742;2023-04-01T01:38:04;98805.88;;;7.59;100.00
44103;BME280;29769;42.178;24.742;2023-04-01T01:40:52;98797.81;;;7.71;100.00
44103;BME280;29769;42.178;24.742;2023-04-01T01:43:42;98788.25;;;7.70;100.00
44103;BME280;29769;42.178;24.742;2023-04-01T01:46:30;98778.75;;;7.65;100.00
44103;BME280;29769;42.178;24.742;2023-04-01T01:49:17;98783.88;;;7.69;100.00
44103;BME280;29769;42.178;24.742;2023-04-01T01:52:04;98768.44;;;7.55;100.00
44103;BME280;29769;42.178;24.742;2023-04-01T01:54:51;98780.31;;;7.73;100.00
44103;BME280;29769;42.178;24.742;2023-04-01T01:57:38;98754.38;;;7.61;100.00
44103;BME280;29769;42.178;24.742;2023-04-01T02:00:33;98768.97;;;7.74;100.00
44103;BME280;29769;42.178;24.742;2023-04-01T02:03:21;98757.53;;;7.78;100.00
44103;BME280;29769;42.178;24.742;2023-04-01T02:06:09;98763.47;;;7.88;100.00
44103;BME280;29769;42.178;24.742;2023-04-01T02:08:59;98759.69;;;8.02;100.00
44103;BME280;29769;42.178;24.742;2023-04-01T02:11:52;98761.16;;;8.16;100.00
44103;BME280;29769;42.178;24.742;2023-04-01T02:14:54;98767.13;;;8.24;100.00
44103;BME280;29769;42.178;24.742;2023-04-01T02:17:43;98770.75;;;8.17;100.00
44103;BME280;29769;42.178;24.742;2023-04-01T02:20:30;98775.50;;;7.98;100.00
44103;BME280;29769;42.178;24.742;2023-04-01T02:23:15;98780.66;;;8.02;100.00
44103;BME280;29769;42.178;24.742;2023-04-01T02:26:01;98786.97;;;7.91;100.00
44103;BME280;29769;42.178;24.742;2023-04-01T02:28:46;98778.28;;;7.41;100.00
44103;BME280;29769;42.178;24.742;2023-04-01T02:31:31;98788.38;;;7.12;100.00
44103;BME280;29769;42.178;24.742;2023-04-01T02:34:17;98780.88;;;6.89;100.00
44103;BME280;29769;42.178;24.742;2023-04-01T02:37:02;98764.41;;;6.83;100.00
44103;BME280;29769;42.178;24.742;2023-04-01T02:39:47;98757.31;;;6.92;100.00
44103;BME280;29769;42.178;24.742;2023-04-01T02:42:32;98756.22;;;7.05;100.00
44103;BME280;29769;42.178;24.742;2023-04-01T02:45:16;98766.50;;;7.18;100.00
44103;BME280;29769;42.178;24.742;2023-04-01T02:48:01;98752.78;;;7.03;100.00
44103;BME280;29769;42.178;24.742;2023-04-01T02:50:46;98776.19;;;7.09;100.00
44103;BME280;29769;42.178;24.742;2023-04-01T02:53:31;98774.44;;;7.11;100.00
44103;BME280;29769;42.178;24.742;2023-04-01T02:56:16;98757.72;;;7.22;100.00
44103;BME280;29769;42.178;24.742;2023-04-01T02:59:01;98758.59;;;7.21;100.00
44103;BME280;29769;42.178;24.742;2023-04-01T03:01:46;98755.81;;;7.30;100.00
44103;BME280;29769;42.178;24.742;2023-04-01T03:04:31;98752.19;;;7.38;100.00
44103;BME280;29769;42.178;24.742;2023-04-01T03:07:16;98747.03;;;7.34;100.00
44103;BME280;29769;42.178;24.742;2023-04-01T03:10:01;98741.56;;;7.46;100.00
44103;BME280;29769;42.178;24.742;2023-04-01T03:12:46;98752.97;;;7.43;100.00
44103;BME280;29769;42.178;24.742;2023-04-01T03:15:31;98761.69;;;7.44;100.00
44103;BME280;29769;42.178;24.742;2023-04-01T03:18:16;98757.16;;;7.52;100.00
44103;BME280;29769;42.178;24.742;2023-04-01T03:21:16;98752.81;;;7.51;100.00
44103;BME280;29769;42.178;24.742;2023-04-01T03:24:02;98749.41;;;7.46;100.00
44103;BME280;29769;42.178;24.742;2023-04-01T03:26:47;98741.63;;;7.43;100.00
44103;BME280;29769;42.178;24.742;2023-04-01T03:29:32;98735.53;;;7.42;100.00
44103;BME280;29769;42.178;24.742;2023-04-01T03:32:17;98735.72;;;7.32;100.00
44103;BME280;29769;42.178;24.742;2023-04-01T03:35:03;98732.34;;;7.27;100.00
44103;BME280;29769;42.178;24.742;2023-04-01T03:37:48;98726.31;;;7.22;100.00
44103;BME280;29769;42.178;24.742;2023-04-01T03:40:33;98724.66;;;7.18;100.00
44103;BME280;29769;42.178;24.742;2023-04-01T03:43:21;98714.38;;;7.07;100.00
44103;BME280;29769;42.178;24.742;2023-04-01T03:46:06;98721.34;;;7.06;100.00
44103;BME280;29769;42.178;24.742;2023-04-01T03:48:51;98722.22;;;7.07;100.00
44103;BME280;29769;42.178;24.742;2023-04-01T03:51:36;98727.50;;;7.04;100.00
44103;BME280;29769;42.178;24.742;2023-04-01T03:54:21;98717.94;;;7.01;100.00
44103;BME280;29769;42.178;24.742;2023-04-01T03:57:06;98723.03;;;7.09;100.00
44103;BME280;29769;42.178;24.742;2023-04-01T03:59:51;98722.06;;;7.14;100.00
44103;BME280;29769;42.178;24.742;2023-04-01T04:02:36;98714.13;;;7.19;100.00
44103;BME280;29769;42.178;24.742;2023-04-01T04:05:25;98717.28;;;7.39;100.00
44103;BME280;29769;42.178;24.742;2023-04-01T04:08:10;98713.63;;;7.49;100.00
44103;BME280;29769;42.178;24.742;2023-04-01T04:10:55;98716.91;;;7.59;100.00
44103;BME280;29769;42.178;24.742;2023-04-01T04:13:40;98715.91;;;7.66;100.00
44103;BME280;29769;42.178;24.742;2023-04-01T04:16:25;98704.41;;;7.73;100.00
44103;BME280;29769;42.178;24.742;2023-04-01T04:19:17;98706.72;;;7.88;100.00
44103;BME280;29769;42.178;24.742;2023-04-01T04:22:03;98712.47;;;8.05;100.00
44103;BME280;29769;42.178;24.742;2023-04-01T04:24:48;98717.53;;;8.15;100.00
44103;BME280;29769;42.178;24.742;2023-04-01T04:27:33;98720.03;;;8.21;100.00
44103;BME280;29769;42.178;24.742;2023-04-01T04:30:26;98732.03;;;8.32;100.00
44103;BME280;29769;42.178;24.742;2023-04-01T04:33:10;98720.28;;;8.50;100.00
44103;BME280;29769;42.178;24.742;2023-04-01T04:35:56;98714.78;;;8.62;100.00
44103;BME280;29769;42.178;24.742;2023-04-01T04:38:41;98714.69;;;8.65;100.00
44103;BME280;29769;42.178;24.742;2023-04-01T04:41:26;98717.88;;;8.78;100.00
44103;BME280;29769;42.178;24.742;2023-04-01T04:44:11;98722.00;;;8.89;100.00
44103;BME280;29769;42.178;24.742;2023-04-01T04:46:56;98724.16;;;9.08;100.00
44103;BME280;29769;42.178;24.742;2023-04-01T04:49:41;98705.75;;;9.09;100.00
44103;BME280;29769;42.178;24.742;2023-04-01T04:52:28;98724.59;;;9.25;100.00
44103;BME280;29769;42.178;24.742;2023-04-01T04:55:13;98731.63;;;9.24;100.00
44103;BME280;29769;42.178;24.742;2023-04-01T04:58:01;98707.97;;;9.26;100.00
44103;BME280;29769;42.178;24.742;2023-04-01T05:00:47;98730.00;;;9.53;100.00
44103;BME280;29769;42.178;24.742;2023-04-01T05:03:39;98732.22;;;9.68;100.00
44103;BME280;29769;42.178;24.742;2023-04-01T05:06:24;98722.25;;;9.80;100.00
44103;BME280;29769;42.178;24.742;2023-04-01T05:09:10;98721.81;;;9.96;100.00
44103;BME280;29769;42.178;24.742;2023-04-01T05:11:55;98719.63;;;10.11;100.00
44103;BME280;29769;42.178;24.742;2023-04-01T05:14:42;98720.88;;;10.29;100.00
44103;BME280;29769;42.178;24.742;2023-04-01T05:17:28;98704.38;;;10.24;100.00
44103;BME280;29769;42.178;24.742;2023-04-01T05:20:14;98718.69;;;10.43;100.00
44103;BME280;29769;42.178;24.742;2023-04-01T05:22:59;98708.97;;;10.45;100.00
44103;BME280;29769;42.178;24.742;2023-04-01T05:25:45;98699.13;;;10.53;100.00
44103;BME280;29769;42.178;24.742;2023-04-01T05:28:30;98703.38;;;10.57;100.00
44103;BME280;29769;42.178;24.742;2023-04-01T05:31:15;98706.66;;;10.64;100.00
44103;BME280;29769;42.178;24.742;2023-04-01T05:34:03;98703.09;;;10.66;100.00
44103;BME280;29769;42.178;24.742;2023-04-01T05:36:48;98706.59;;;10.67;100.00
44103;BME280;29769;42.178;24.742;2023-04-01T05:39:39;98688.06;;;10.70;100.00
44103;BME280;29769;42.178;24.742;2023-04-01T05:42:25;98674.63;;;10.51;100.00
44103;BME280;29769;42.178;24.742;2023-04-01T05:45:10;98664.72;;;10.02;100.00
44103;BME280;29769;42.178;24.742;2023-04-01T05:48:14;98666.50;;;10.00;100.00
44103;BME280;29769;42.178;24.742;2023-04-01T05:51:01;98658.22;;;10.15;100.00
44103;BME280;29769;42.178;24.742;2023-04-01T05:53:47;98646.84;;;10.13;100.00
44103;BME280;29769;42.178;24.742;2023-04-01T05:56:32;98653.81;;;10.16;100.00
44103;BME280;29769;42.178;24.742;2023-04-01T05:59:18;98651.84;;;10.22;100.00
44103;BME280;29769;42.178;24.742;2023-04-01T06:02:03;98642.72;;;10.36;100.00
44103;BME280;29769;42.178;24.742;2023-04-01T06:04:47;98632.75;;;10.45;100.00
44103;BME280;29769;42.178;24.742;2023-04-01T06:07:32;98639.00;;;10.41;100.00
44103;BME280;29769;42.178;24.742;2023-04-01T06:10:19;98619.81;;;10.10;100.00
44103;BME280;29769;42.178;24.742;2023-04-01T06:13:35;98622.34;;;10.13;100.00
44103;BME280;29769;42.178;24.742;2023-04-01T06:28:53;98605.47;;;10.76;100.00
44103;BME280;29769;42.178;24.742;2023-04-01T06:44:33;98610.41;;;11.59;100.00
44103;BME280;29769;42.178;24.742;2023-04-01T06:48:00;98591.00;;;11.38;100.00
44103;BME280;29769;42.178;24.742;2023-04-01T06:54:18;98608.97;;;11.98;100.00
44103;BME280;29769;42.178;24.742;2023-04-01T06:57:42;98608.09;;;12.43;100.00
44103;BME280;29769;42.178;24.742;2023-04-01T07:00:37;98622.19;;;12.85;100.00
44103;BME280;29769;42.178;24.742;2023-04-01T07:03:37;98607.84;;;13.13;100.00
44103;BME280;29769;42.178;24.742;2023-04-01T07:06:31;98597.50;;;13.28;100.00
44103;BME280;29769;42.178;24.742;2023-04-01T07:09:20;98612.81;;;13.41;100.00
44103;BME280;29769;42.178;24.742;2023-04-01T07:16:17;98589.31;;;13.14;100.00
44103;BME280;29769;42.178;24.742;2023-04-01T07:19:12;98566.25;;;13.38;100.00
44103;BME280;29769;42.178;24.742;2023-04-01T07:22:48;98581.47;;;14.09;100.00
44103;BME280;29769;42.178;24.742;2023-04-01T07:25:48;98573.59;;;14.45;100.00
44103;BME280;29769;42.178;24.742;2023-04-01T07:28:48;98559.22;;;14.68;100.00
44103;BME280;29769;42.178;24.742;2023-04-01T07:38:02;98547.44;;;15.42;100.00
44103;BME280;29769;42.178;24.742;2023-04-01T07:44:31;98556.84;;;14.98;100.00
44103;BME280;29769;42.178;24.742;2023-04-01T07:50:26;98547.97;;;14.99;100.00
44103;BME280;29769;42.178;24.742;2023-04-01T07:53:43;98551.38;;;15.01;100.00
44103;BME280;29769;42.178;24.742;2023-04-01T07:56:51;98555.75;;;15.02;100.00
44103;BME280;29769;42.178;24.742;2023-04-01T08:00:04;98531.59;;;14.74;100.00
44103;BME280;29769;42.178;24.742;2023-04-01T08:06:37;98539.63;;;14.36;100.00
44103;BME280;29769;42.178;24.742;2023-04-01T08:09:50;98546.25;;;14.45;100.00
44103;BME280;29769;42.178;24.742;2023-04-01T08:22:28;98517.38;;;13.86;100.00
44103;BME280;29769;42.178;24.742;2023-04-01T08:25:24;98493.56;;;13.86;100.00
44103;BME280;29769;42.178;24.742;2023-04-01T08:28:37;98509.31;;;13.89;100.00
44103;BME280;29769;42.178;24.742;2023-04-01T08:31:54;98504.03;;;13.89;100.00
44103;BME280;29769;42.178;24.742;2023-04-01T08:34:43;98498.00;;;14.04;100.00
44103;BME280;29769;42.178;24.742;2023-04-01T08:37:39;98494.34;;;14.06;100.00
44103;BME280;29769;42.178;24.742;2023-04-01T08:40:46;98475.00;;;14.06;100.00
44103;BME280;29769;42.178;24.742;2023-04-01T08:59:59;98456.72;;;15.04;100.00
44103;BME280;29769;42.178;24.742;2023-04-01T09:06:23;98447.34;;;15.47;100.00
44103;BME280;29769;42.178;24.742;2023-04-01T09:09:33;98448.53;;;15.26;100.00
44103;BME280;29769;42.178;24.742;2023-04-01T09:18:42;98407.00;;;14.94;100.00
44103;BME280;29769;42.178;24.742;2023-04-01T09:34:54;98387.09;;;15.51;100.00
44103;BME280;29769;42.178;24.742;2023-04-01T09:40:55;98374.56;;;16.00;100.00
44103;BME280;29769;42.178;24.742;2023-04-01T09:44:18;98378.75;;;16.34;100.00
44103;BME280;29769;42.178;24.742;2023-04-01T09:48:02;98382.78;;;16.55;100.00
44103;BME280;29769;42.178;24.742;2023-04-01T10:06:45;98336.97;;;17.77;91.98
44103;BME280;29769;42.178;24.742;2023-04-01T10:44:01;98255.75;;;17.99;84.75
44103;BME280;29769;42.178;24.742;2023-04-01T10:56:55;98188.09;;;19.37;76.78
44103;BME280;29769;42.178;24.742;2023-04-01T11:26:51;98149.81;;;25.28;50.24
44103;BME280;29769;42.178;24.742;2023-04-01T11:42:29;98110.94;;;26.09;42.73
44103;BME280;29769;42.178;24.742;2023-04-01T11:45:43;98102.00;;;26.08;42.48
44103;BME280;29769;42.178;24.742;2023-04-01T11:55:24;98102.28;;;25.36;43.41
44103;BME280;29769;42.178;24.742;2023-04-01T12:01:13;98101.38;;;20.89;59.58
44103;BME280;29769;42.178;24.742;2023-04-01T12:04:29;98110.31;;;20.01;64.38
44103;BME280;29769;42.178;24.742;2023-04-01T12:11:00;98098.97;;;18.94;71.23
44103;BME280;29769;42.178;24.742;2023-04-01T12:14:05;98084.03;;;18.67;70.81
44103;BME280;29769;42.178;24.742;2023-04-01T12:17:10;98089.75;;;17.89;77.31
44103;BME280;29769;42.178;24.742;2023-04-01T12:26:47;98053.84;;;18.80;74.03
44103;BME280;29769;42.178;24.742;2023-04-01T13:15:17;97971.50;;;20.34;61.19
44103;BME280;29769;42.178;24.742;2023-04-01T13:27:57;97981.38;;;17.67;76.62
44103;BME280;29769;42.178;24.742;2023-04-01T13:40:16;98081.38;;;16.23;84.24
44103;BME280;29769;42.178;24.742;2023-04-01T13:43:19;98082.44;;;16.06;90.24
44103;BME280;29769;42.178;24.742;2023-04-01T13:49:36;98074.13;;;15.55;100.00
44103;BME280;29769;42.178;24.742;2023-04-01T14:01:41;98195.59;;;14.86;100.00
44103;BME280;29769;42.178;24.742;2023-04-01T14:10:42;98223.38;;;14.79;100.00
44103;BME280;29769;42.178;24.742;2023-04-01T14:13:50;98231.56;;;14.90;100.00
44103;BME280;29769;42.178;24.742;2023-04-01T14:23:00;98210.91;;;15.42;100.00
44103;BME280;29769;42.178;24.742;2023-04-01T14:28:52;98224.31;;;15.99;100.00
44103;BME280;29769;42.178;24.742;2023-04-01T14:32:02;98204.81;;;16.00;100.00
44103;BME280;29769;42.178;24.742;2023-04-01T14:41:47;98200.19;;;15.30;100.00
44103;BME280;29769;42.178;24.742;2023-04-01T14:48:24;98199.28;;;14.68;100.00
44103;BME280;29769;42.178;24.742;2023-04-01T14:51:20;98211.72;;;14.50;100.00
44103;BME280;29769;42.178;24.742;2023-04-01T15:03:08;98195.00;;;13.84;100.00
44103;BME280;29769;42.178;24.742;2023-04-01T15:15:29;98185.75;;;13.75;100.00
44103;BME280;29769;42.178;24.742;2023-04-01T15:27:09;98191.34;;;13.69;100.00
44103;BME280;29769;42.178;24.742;2023-04-01T15:39:16;98160.44;;;13.71;100.00
44103;BME280;29769;42.178;24.742;2023-04-01T16:00:42;98157.50;;;13.43;100.00
44103;BME280;29769;42.178;24.742;2023-04-01T16:12:46;98191.28;;;13.01;100.00
44103;BME280;29769;42.178;24.742;2023-04-01T16:25:13;98210.84;;;12.78;100.00
44103;BME280;29769;42.178;24.742;2023-04-01T16:34:13;98229.66;;;13.08;100.00
44103;BME280;29769;42.178;24.742;2023-04-01T16:37:10;98214.09;;;13.20;100.00
44103;BME280;29769;42.178;24.742;2023-04-01T16:43:15;98229.97;;;13.55;100.00
44103;BME280;29769;42.178;24.742;2023-04-01T16:52:13;98230.41;;;13.11;100.00
44103;BME280;29769;42.178;24.742;2023-04-01T16:55:03;98251.56;;;12.72;100.00
44103;BME280;29769;42.178;24.742;2023-04-01T16:57:57;98248.88;;;12.55;100.00
44103;BME280;29769;42.178;24.742;2023-04-01T17:00:52;98229.91;;;12.47;100.00
44103;BME280;29769;42.178;24.742;2023-04-01T17:03:44;98218.06;;;12.37;100.00
44103;BME280;29769;42.178;24.742;2023-04-01T17:19:01;98205.38;;;12.64;100.00
44103;BME280;29769;42.178;24.742;2023-04-01T17:22:04;98217.91;;;12.59;100.00
44103;BME280;29769;42.178;24.742;2023-04-01T17:46:03;98372.91;;;12.13;100.00
44103;BME280;29769;42.178;24.742;2023-04-01T17:55:18;98367.91;;;12.27;100.00
44103;BME280;29769;42.178;24.742;2023-04-01T17:58:19;98406.81;;;12.42;100.00
44103;BME280;29769;42.178;24.742;2023-04-01T18:01:58;98401.47;;;12.24;100.00
44103;BME280;29769;42.178;24.742;2023-04-01T18:04:28;98423.06;;;12.32;100.00
44103;BME280;29769;42.178;24.742;2023-04-01T18:07:33;98442.13;;;12.18;100.00
44103;BME280;29769;42.178;24.742;2023-04-01T18:10:35;98412.59;;;12.10;100.00
44103;BME280;29769;42.178;24.742;2023-04-01T18:13:45;98425.41;;;12.39;100.00
44103;BME280;29769;42.178;24.742;2023-04-01T18:22:59;98448.25;;;12.19;100.00
44103;BME280;29769;42.178;24.742;2023-04-01T18:25:50;98463.66;;;12.08;100.00
44103;BME280;29769;42.178;24.742;2023-04-01T18:28:43;98469.22;;;12.00;100.00
44103;BME280;29769;42.178;24.742;2023-04-01T18:31:38;98453.69;;;11.94;100.00
44103;BME280;29769;42.178;24.742;2023-04-01T18:34:43;98438.25;;;11.85;100.00
44103;BME280;29769;42.178;24.742;2023-04-01T18:47:05;98455.03;;;11.36;100.00
44103;BME280;29769;42.178;24.742;2023-04-01T18:50:03;98461.63;;;11.24;100.00
44103;BME280;29769;42.178;24.742;2023-04-01T18:52:58;98457.63;;;11.14;100.00
44103;BME280;29769;42.178;24.742;2023-04-01T18:55:59;98472.28;;;10.98;100.00
44103;BME280;29769;42.178;24.742;2023-04-01T19:07:49;98485.53;;;10.95;100.00
44103;BME280;29769;42.178;24.742;2023-04-01T19:10:47;98483.91;;;10.91;100.00
44103;BME280;29769;42.178;24.742;2023-04-01T19:16:43;98486.41;;;10.70;100.00
44103;BME280;29769;42.178;24.742;2023-04-01T19:20:07;98494.66;;;10.60;100.00
44103;BME280;29769;42.178;24.742;2023-04-01T19:23:25;98491.56;;;10.49;100.00
44103;BME280;29769;42.178;24.742;2023-04-01T19:29:21;98510.84;;;10.48;100.00
44103;BME280;29769;42.178;24.742;2023-04-01T19:32:37;98517.94;;;10.46;100.00
44103;BME280;29769;42.178;24.742;2023-04-01T19:44:56;98509.03;;;10.23;100.00
44103;BME280;29769;42.178;24.742;2023-04-01T19:48:02;98525.03;;;10.17;100.00
44103;BME280;29769;42.178;24.742;2023-04-01T19:50:55;98509.16;;;9.91;100.00
44103;BME280;29769;42.178;24.742;2023-04-01T19:54:02;98539.81;;;9.91;100.00
44103;BME280;29769;42.178;24.742;2023-04-01T20:03:30;98534.72;;;9.27;100.00
44103;BME280;29769;42.178;24.742;2023-04-01T20:09:41;98557.81;;;9.15;100.00
44103;BME280;29769;42.178;24.742;2023-04-01T20:12:45;98567.31;;;9.19;100.00
44103;BME280;29769;42.178;24.742;2023-04-01T20:15:38;98567.63;;;9.08;100.00
44103;BME280;29769;42.178;24.742;2023-04-01T20:21:57;98583.31;;;9.10;100.00
44103;BME280;29769;42.178;24.742;2023-04-01T20:24:45;98584.09;;;9.13;100.00
44103;BME280;29769;42.178;24.742;2023-04-01T20:27:40;98587.50;;;9.17;100.00
44103;BME280;29769;42.178;24.742;2023-04-01T20:33:26;98596.03;;;9.25;100.00
44103;BME280;29769;42.178;24.742;2023-04-01T20:42:34;98592.56;;;9.23;100.00
44103;BME280;29769;42.178;24.742;2023-04-01T20:51:51;98597.44;;;9.36;100.00
44103;BME280;29769;42.178;24.742;2023-04-01T20:55:52;98616.69;;;9.37;100.00
44103;BME280;29769;42.178;24.742;2023-04-01T21:07:22;98616.69;;;9.37;100.00
44103;BME280;29769;42.178;24.742;2023-04-01T21:16:41;98592.06;;;9.41;100.00
44103;BME280;29769;42.178;24.742;2023-04-01T21:25:43;98610.69;;;9.32;100.00
44103;BME280;29769;42.178;24.742;2023-04-01T21:28:56;98620.75;;;9.16;100.00
44103;BME280;29769;42.178;24.742;2023-04-01T21:32:03;98625.94;;;9.18;100.00
44103;BME280;29769;42.178;24.742;2023-04-01T21:41:20;98615.75;;;8.73;100.00
44103;BME280;29769;42.178;24.742;2023-04-01T21:44:32;98641.56;;;8.90;100.00
44103;BME280;29769;42.178;24.742;2023-04-01T22:11:19;98686.47;;;9.12;100.00
44103;BME280;29769;42.178;24.742;2023-04-01T22:23:20;98692.94;;;8.97;100.00
44103;BME280;29769;42.178;24.742;2023-04-01T22:26:23;98696.75;;;8.85;100.00
44103;BME280;29769;42.178;24.742;2023-04-01T22:29:20;98692.75;;;8.69;100.00
44103;BME280;29769;42.178;24.742;2023-04-01T22:32:14;98683.44;;;8.56;100.00
44103;BME280;29769;42.178;24.742;2023-04-01T22:35:10;98675.81;;;8.47;100.00
44103;BME280;29769;42.178;24.742;2023-04-01T22:43:57;98673.84;;;7.75;100.00
44103;BME280;29769;42.178;24.742;2023-04-01T22:52:39;98693.03;;;7.31;100.00
44103;BME280;29769;42.178;24.742;2023-04-01T22:55:29;98687.97;;;7.22;100.00
44103;BME280;29769;42.178;24.742;2023-04-01T22:58:19;98693.34;;;7.13;100.00
44103;BME280;29769;42.178;24.742;2023-04-01T23:01:12;98689.91;;;7.09;100.00
44103;BME280;29769;42.178;24.742;2023-04-01T23:03:58;98701.31;;;7.05;100.00
44103;BME280;29769;42.178;24.742;2023-04-01T23:06:49;98690.19;;;6.93;100.00
44103;BME280;29769;42.178;24.742;2023-04-01T23:09:37;98704.84;;;7.03;100.00
44103;BME280;29769;42.178;24.742;2023-04-01T23:12:23;98697.97;;;6.97;100.00
44103;BME280;29769;42.178;24.742;2023-04-01T23:15:14;98688.38;;;6.98;100.00
44103;BME280;29769;42.178;24.742;2023-04-01T23:21:09;98689.00;;;7.12;100.00
44103;BME280;29769;42.178;24.742;2023-04-01T23:24:24;98702.00;;;7.17;100.00
44103;BME280;29769;42.178;24.742;2023-04-01T23:27:27;98696.84;;;7.12;100.00
44103;BME280;29769;42.178;24.742;2023-04-01T23:33:29;98715.31;;;7.03;100.00
44103;BME280;29769;42.178;24.742;2023-04-01T23:36:15;98708.19;;;7.09;100.00
44103;BME280;29769;42.178;24.742;2023-04-01T23:39:03;98704.63;;;7.15;100.00
44103;BME280;29769;42.178;24.742;2023-04-01T23:41:51;98698.59;;;7.11;100.00
44103;BME280;29769;42.178;24.742;2023-04-01T23:44:37;98692.06;;;7.35;100.00
44103;BME280;29769;42.178;24.742;2023-04-01T23:47:26;98689.47;;;7.78;100.00
44103;BME280;29769;42.178;24.742;2023-04-01T23:50:17;98670.25;;;7.81;100.00
44103;BME280;29769;42.178;24.742;2023-04-01T23:53:16;98679.31;;;8.04;100.00
44103;BME280;29769;42.178;24.742;2023-04-01T23:56:03;98677.84;;;8.34;100.00
44103;BME280;29769;42.178;24.742;2023-04-01T23:58:50;98682.19;;;7.94;100.00
